Time;durP1;ratioP1;P1;durP2;ratioP2;P2;SDS_P1;SDS_P2;PMS_P1;PMS_P2;Temp;Humidity;BMP_temperature;BMP_pressure;BME280_temperature;BME280_humidity;BME280_pressure;Samples;Min_cycle;Max_cycle;Signal;HPM_P1;HPM_P2
2022/03/27 00:00:26;;;;;;;20.50;11.38;;;;;;;9.83;46.28;101055.25;1089134;46;20011;-78
2022/03/27 00:01:34;;;;;;;18.20;10.85;;;;;;;9.83;46.57;101057.09;1088690;54;20053;-78
2022/03/27 00:02:38;;;;;;;20.65;12.35;;;;;;;9.86;46.08;101050.66;1088454;54;20026;-79
2022/03/27 00:03:42;;;;;;;21.00;10.98;;;;;;;9.89;45.75;101058.44;1088215;54;20031;-78
2022/03/27 00:04:44;;;;;;;24.00;12.45;;;;;;;9.87;46.06;101057.69;1088217;54;20038;-78
2022/03/27 00:05:48;;;;;;;22.65;12.50;;;;;;;9.83;46.30;101057.91;1088365;54;20037;-79
2022/03/27 00:06:52;;;;;;;25.75;14.52;;;;;;;9.70;47.11;101062.50;1088291;54;20034;-78
2022/03/27 00:07:54;;;;;;;32.22;15.63;;;;;;;9.68;46.87;101056.41;1088377;54;20038;-77
2022/03/27 00:08:58;;;;;;;23.48;13.80;;;;;;;9.72;46.56;101054.34;1088201;54;20031;-78
2022/03/27 00:09:59;;;;;;;28.27;13.23;;;;;;;9.72;46.85;101062.38;1088271;54;20034;-79
2022/03/27 00:12:21;;;;;;;22.10;13.10;;;;;;;9.55;47.45;101064.47;1088274;54;20027;-77
2022/03/27 00:13:25;;;;;;;24.10;13.43;;;;;;;9.54;47.72;101056.59;1088290;54;20031;-78
2022/03/27 00:14:29;;;;;;;22.40;12.15;;;;;;;9.61;47.13;101063.19;1088219;54;20030;-79
2022/03/27 00:15:31;;;;;;;20.67;12.52;;;;;;;9.60;47.26;101050.78;1088292;54;20034;-78
2022/03/27 00:16:36;;;;;;;19.20;11.23;;;;;;;9.69;46.91;101055.44;1088707;39;20666;-79
2022/03/27 00:17:38;;;;;;;17.00;11.77;;;;;;;9.64;47.04;101052.25;1088255;54;20042;-79
2022/03/27 00:18:43;;;;;;;21.73;12.45;;;;;;;9.66;46.83;101056.53;1088239;46;20042;-79
2022/03/27 00:19:45;;;;;;;15.65;10.95;;;;;;;9.70;46.93;101062.50;1088310;54;20038;-78
2022/03/27 00:20:49;;;;;;;21.10;12.25;;;;;;;9.70;46.81;101062.50;1089599;46;20049;-79
2022/03/27 00:21:50;;;;;;;17.48;11.40;;;;;;;9.71;46.66;101056.19;1088336;54;20035;-78
2022/03/27 00:22:54;;;;;;;21.80;11.82;;;;;;;9.71;46.87;101058.00;1088242;54;20036;-79
2022/03/27 00:23:56;;;;;;;17.65;10.88;;;;;;;9.68;46.79;101062.59;1088161;54;20038;-78
2022/03/27 00:25:00;;;;;;;20.08;11.05;;;;;;;9.71;46.96;101056.19;1088260;54;20015;-78
2022/03/27 00:26:02;;;;;;;18.75;10.70;;;;;;;9.71;46.83;101053.53;1091262;39;20504;-79
2022/03/27 00:27:07;;;;;;;19.88;11.80;;;;;;;9.68;47.20;101051.06;1088296;54;20022;-79
2022/03/27 00:28:09;;;;;;;18.33;11.43;;;;;;;9.68;46.96;101051.06;1088215;54;20030;-79
2022/03/27 00:29:17;;;;;;;21.30;11.13;;;;;;;9.70;47.36;101057.16;1088195;54;20618;-79
2022/03/27 00:30:19;;;;;;;19.40;10.70;;;;;;;9.71;47.16;101063.34;1088196;54;20041;-79
2022/03/27 00:31:23;;;;;;;17.05;10.77;;;;;;;9.70;47.19;101051.81;1087881;54;20042;-79
2022/03/27 00:32:25;;;;;;;19.08;11.23;;;;;;;9.65;47.29;101057.50;1087917;54;20052;-79
2022/03/27 00:33:29;;;;;;;19.17;11.40;;;;;;;9.66;47.39;101053.88;1087971;31;20596;-78
2022/03/27 00:34:31;;;;;;;18.45;10.93;;;;;;;9.65;47.68;101048.63;1087630;54;20322;-79
2022/03/27 00:35:36;;;;;;;20.30;11.73;;;;;;;9.64;47.65;101057.59;1087773;54;20045;-79
2022/03/27 00:36:37;;;;;;;20.15;11.23;;;;;;;9.66;47.56;101053.00;1087605;54;20066;-78
2022/03/27 00:37:41;;;;;;;25.17;12.32;;;;;;;9.59;47.65;101059.75;1087717;54;20090;-79
2022/03/27 00:38:47;;;;;;;18.40;10.70;;;;;;;9.58;47.96;101050.06;1087633;54;20553;-78
2022/03/27 00:39:48;;;;;;;19.02;11.45;;;;;;;9.56;47.84;101057.31;1087884;54;20038;-78
2022/03/27 00:40:53;;;;;;;19.75;11.07;;;;;;;9.62;47.53;101060.38;1087868;54;20058;-78
2022/03/27 00:41:54;;;;;;;19.00;11.38;;;;;;;9.62;47.42;101055.03;1087916;54;20059;-78
2022/03/27 00:42:59;;;;;;;19.80;10.95;;;;;;;9.60;47.88;101061.47;1087902;54;20038;-78
2022/03/27 00:44:00;;;;;;;22.52;12.73;;;;;;;9.57;47.92;101059.03;1088083;46;20039;-78
2022/03/27 00:45:08;;;;;;;17.67;10.95;;;;;;;9.58;47.77;101058.94;1087876;54;20047;-78
2022/03/27 00:46:10;;;;;;;18.83;11.07;;;;;;;9.58;47.66;101058.06;1087940;54;20588;-79
2022/03/27 00:47:14;;;;;;;20.58;11.48;;;;;;;9.56;47.64;101059.97;1089273;39;20551;-79
2022/03/27 00:48:17;;;;;;;20.48;11.45;;;;;;;9.52;47.99;101052.22;1087916;54;20030;-79
2022/03/27 00:49:21;;;;;;;19.45;10.93;;;;;;;9.52;47.66;101060.22;1087860;54;20677;-79
2022/03/27 00:50:23;;;;;;;16.02;10.40;;;;;;;9.51;47.80;101066.53;1087817;46;20721;-78
2022/03/27 00:51:28;;;;;;;17.33;10.25;;;;;;;9.55;47.50;101060.94;1087901;54;20078;-78
2022/03/27 00:52:30;;;;;;;17.88;10.85;;;;;;;9.53;47.62;101061.06;1087759;54;20034;-78
2022/03/27 00:53:34;;;;;;;21.25;11.43;;;;;;;9.49;47.67;101059.59;1089826;39;20437;-78
2022/03/27 00:54:35;;;;;;;21.20;12.32;;;;;;;9.45;47.77;101061.63;1087705;54;20042;-78
2022/03/27 00:55:40;;;;;;;18.50;10.95;;;;;;;9.41;48.05;101062.81;1087643;54;20588;-78
2022/03/27 00:56:42;;;;;;;20.45;12.18;;;;;;;9.38;48.17;101057.72;1088465;46;20035;-79
2022/03/27 00:57:46;;;;;;;24.83;12.02;;;;;;;9.28;48.48;101060.22;1087691;54;20042;-79
2022/03/27 00:58:47;;;;;;;21.45;12.35;;;;;;;9.30;48.21;101058.28;1087822;54;20042;-79
2022/03/27 00:59:53;;;;;;;18.38;11.98;;;;;;;9.30;48.25;101060.09;1087906;54;20038;-78
2022/03/27 01:01:07;;;;;;;27.45;12.70;;;;;;;9.19;48.96;101055.53;1087900;54;20038;-79
2022/03/27 01:02:10;;;;;;;22.52;12.77;;;;;;;9.13;48.81;101064.84;1087774;54;20038;-79
2022/03/27 01:03:16;;;;;;;20.90;12.98;;;;;;;9.10;48.78;101062.38;1088732;46;20026;-79
2022/03/27 01:04:21;;;;;;;22.00;12.85;;;;;;;9.05;49.00;101061.88;1087651;54;20034;-78
2022/03/27 01:05:22;;;;;;;24.63;13.93;;;;;;;9.09;48.81;101062.50;1087780;54;20658;-78
2022/03/27 01:06:33;;;;;;;22.52;11.48;;;;;;;9.02;49.11;101056.75;1089553;46;20034;-78
2022/03/27 01:07:34;;;;;;;19.88;11.52;;;;;;;9.03;48.92;101058.47;1088435;46;20042;-79
2022/03/27 01:09:57;;;;;;;21.98;12.18;;;;;;;9.05;48.93;101056.53;1089028;39;20475;-78
2022/03/27 01:10:58;;;;;;;17.20;10.32;;;;;;;9.04;49.00;101054.81;1088015;54;20049;-78
2022/03/27 01:12:17;;;;;;;20.05;11.13;;;;;;;9.03;49.34;101051.28;1087628;54;20035;-79
2022/03/27 01:13:20;;;;;;;18.92;11.80;;;;;;;9.04;48.85;101054.81;1088035;54;20060;-78
2022/03/27 01:14:30;;;;;;;21.13;12.00;;;;;;;9.02;49.42;101057.59;1087886;54;20042;-78
2022/03/27 01:15:34;;;;;;;23.27;11.98;;;;;;;9.02;49.19;101046.91;1087903;54;20126;-78
2022/03/27 01:16:46;;;;;;;16.52;10.25;;;;;;;9.03;49.39;101047.78;1087948;54;20103;-79
2022/03/27 01:17:47;;;;;;;22.00;12.23;;;;;;;9.01;49.13;101044.38;1088172;54;20014;-77
2022/03/27 01:18:51;;;;;;;21.67;11.70;;;;;;;9.00;49.12;101046.19;1087974;54;20018;-78
2022/03/27 01:19:57;;;;;;;22.67;11.73;;;;;;;9.02;49.05;101044.25;1088046;54;20033;-78
2022/03/27 01:21:01;;;;;;;17.58;11.43;;;;;;;9.07;49.39;101045.75;1088194;54;20014;-78
2022/03/27 01:22:06;;;;;;;21.45;11.93;;;;;;;9.02;49.30;101041.59;1088201;54;20041;-78
2022/03/27 01:23:10;;;;;;;17.20;11.18;;;;;;;9.00;49.37;101040.88;1093894;39;20637;-79
2022/03/27 01:24:16;;;;;;;23.38;13.32;;;;;;;9.02;49.44;101040.75;1088258;54;20019;-78
2022/03/27 01:25:18;;;;;;;18.23;12.45;;;;;;;8.97;49.83;101041.06;1088246;54;20038;-79
2022/03/27 01:26:23;;;;;;;19.90;11.38;;;;;;;8.94;49.58;101027.09;1088300;54;20049;-78
2022/03/27 01:27:27;;;;;;;19.67;12.05;;;;;;;8.88;49.85;101034.56;1089105;46;20030;-78
2022/03/27 01:28:29;;;;;;;22.77;12.85;;;;;;;8.87;49.94;101040.91;1088877;46;20041;-78
2022/03/27 01:29:34;;;;;;;19.77;12.18;;;;;;;8.88;50.00;101033.72;1088387;54;20041;-79
2022/03/27 01:31:42;;;;;;;18.42;10.68;;;;;;;8.87;50.18;101040.91;1087898;54;20031;-83
2022/03/27 01:32:46;;;;;;;18.67;12.50;;;;;;;8.83;50.16;101036.72;1088557;54;20037;-82
2022/03/27 01:33:50;;;;;;;19.88;11.60;;;;;;;8.88;49.95;101034.56;1088430;54;20018;-83
2022/03/27 01:34:58;;;;;;;16.73;10.57;;;;;;;8.88;50.17;101042.56;1088571;54;20720;-85
2022/03/27 01:36:04;;;;;;;19.30;11.10;;;;;;;8.87;49.96;101035.56;1088621;54;20014;-84
2022/03/27 01:37:09;;;;;;;21.23;11.93;;;;;;;8.87;49.96;101035.56;1088516;54;20037;-85
2022/03/27 01:38:12;;;;;;;17.33;11.60;;;;;;;8.89;49.82;101036.28;1089920;46;20045;-84
2022/03/27 01:41:30;;;;;;;22.00;11.73;;;;;;;8.81;49.93;101033.31;1087615;54;20031;-84
2022/03/27 01:43:38;;;;;;;14.45;10.13;;;;;;;8.89;49.84;101036.28;1087844;54;20025;-81
2022/03/27 01:44:43;;;;;;;17.65;11.60;;;;;;;8.85;49.77;101034.81;1087942;54;20042;-82
2022/03/27 01:45:45;;;;;;;23.10;11.65;;;;;;;8.86;49.93;101039.19;1087354;54;20046;-81
2022/03/27 01:46:49;;;;;;;17.27;10.80;;;;;;;8.83;50.02;101043.88;1087774;54;20041;-82
2022/03/27 01:47:52;;;;;;;15.77;10.18;;;;;;;8.86;49.95;101035.66;1087855;54;20031;-83
2022/03/27 01:48:56;;;;;;;19.10;11.13;;;;;;;8.82;50.22;101045.69;1087652;54;20046;-80
2022/03/27 01:50:04;;;;;;;16.77;10.70;;;;;;;8.80;50.08;101034.28;1087305;54;20038;-79
2022/03/27 01:51:08;;;;;;;19.30;10.82;;;;;;;8.82;50.21;101036.84;1087152;54;20038;-79
2022/03/27 01:52:13;;;;;;;15.50;10.07;;;;;;;8.82;49.95;101040.34;1087392;54;20150;-80
2022/03/27 01:53:14;;;;;;;19.40;11.43;;;;;;;8.79;50.11;101034.38;1087413;54;20035;-79
2022/03/27 01:54:19;;;;;;;19.13;10.32;;;;;;;8.72;50.41;101034.84;1088599;46;20035;-80
2022/03/27 01:55:20;;;;;;;19.42;11.77;;;;;;;8.81;50.30;101035.97;1088098;54;20049;-79
2022/03/27 01:56:25;;;;;;;16.25;10.38;;;;;;;8.82;50.00;101037.69;1087923;54;20555;-81
2022/03/27 01:57:27;;;;;;;17.05;10.63;;;;;;;8.80;50.23;101042.28;1088059;54;20070;-82
2022/03/27 01:58:31;;;;;;;17.98;10.38;;;;;;;8.80;50.24;101042.28;1088206;54;20007;-82
2022/03/27 01:59:35;;;;;;;19.98;11.68;;;;;;;8.73;50.41;101038.34;1088171;46;20034;-82
2022/03/27 02:00:39;;;;;;;20.23;11.88;;;;;;;8.71;50.38;101042.91;1087970;54;20054;-82
2022/03/27 02:01:43;;;;;;;18.77;11.50;;;;;;;8.69;50.66;101039.53;1087816;54;20042;-80
2022/03/27 02:02:45;;;;;;;20.27;11.00;;;;;;;8.68;50.42;101037.81;1087847;54;20027;-84
2022/03/27 02:03:49;;;;;;;22.42;12.00;;;;;;;8.60;50.79;101045.50;1087952;54;20034;-82
2022/03/27 02:04:51;;;;;;;20.65;12.60;;;;;;;8.23;51.52;101041.72;1087695;54;20046;-81
2022/03/27 02:05:56;;;;;;;25.35;13.25;;;;;;;8.02;52.11;101041.38;1088209;54;20014;-83
2022/03/27 02:07:03;;;;;;;22.60;13.52;;;;;;;7.93;52.60;101047.31;1088373;54;20018;-85
2022/03/27 02:08:05;;;;;;;29.45;13.50;;;;;;;7.82;52.73;101050.72;1088368;54;20041;-86
2022/03/27 02:09:10;;;;;;;22.92;14.40;;;;;;;7.71;53.14;101047.91;1088423;54;20015;-83
2022/03/27 02:10:12;;;;;;;22.13;14.00;;;;;;;7.67;53.44;101052.59;1088272;54;20033;-85
2022/03/27 02:11:20;;;;;;;26.90;15.15;;;;;;;7.54;53.88;101047.22;1088227;54;20034;-82
2022/03/27 02:12:21;;;;;;;33.15;15.02;;;;;;;7.49;53.53;101055.50;1088320;54;20023;-83
2022/03/27 02:13:25;;;;;;;25.13;14.52;;;;;;;7.43;53.77;101055.03;1088341;54;20029;-83
2022/03/27 02:14:29;;;;;;;26.60;14.43;;;;;;;7.36;53.82;101057.25;1088343;54;20034;-81
2022/03/27 02:15:31;;;;;;;31.55;14.65;;;;;;;7.28;54.10;101054.22;1088416;54;20034;-85
2022/03/27 02:16:35;;;;;;;26.95;14.52;;;;;;;7.29;53.97;101047.97;1088282;54;20038;-82
2022/03/27 02:17:38;;;;;;;22.35;13.57;;;;;;;7.24;54.21;101056.25;1088334;54;20027;-82
2022/03/27 02:18:43;;;;;;;26.95;14.77;;;;;;;7.18;54.28;101061.94;1095861;46;20630;-82
2022/03/27 02:19:47;;;;;;;22.48;13.25;;;;;;;7.10;54.79;101058.91;1087840;54;20635;-80
2022/03/27 02:20:51;;;;;;;21.98;14.13;;;;;;;7.16;54.26;101055.88;1088086;54;20019;-80
2022/03/27 02:21:57;;;;;;;27.48;14.05;;;;;;;7.18;54.39;101059.28;1088067;54;20042;-81
2022/03/27 02:23:02;;;;;;;26.67;14.20;;;;;;;7.13;54.53;101064.03;1088156;46;20030;-82
2022/03/27 02:24:08;;;;;;;23.60;13.48;;;;;;;7.05;54.68;101063.69;1087867;54;20040;-82
2022/03/27 02:25:09;;;;;;;24.65;13.93;;;;;;;6.97;54.76;101064.16;1087814;54;20062;-81
2022/03/27 02:26:16;;;;;;;25.95;15.25;;;;;;;6.98;54.91;101056.09;1087835;47;20030;-80
2022/03/27 02:27:17;;;;;;;23.30;13.27;;;;;;;6.95;54.94;101061.59;1087691;54;20042;-80
2022/03/27 02:28:22;;;;;;;23.45;14.63;;;;;;;7.01;54.46;101066.53;1087754;54;20027;-80
2022/03/27 02:29:23;;;;;;;25.23;15.00;;;;;;;7.03;54.45;101054.00;1087760;54;20038;-81
2022/03/27 02:30:28;;;;;;;21.15;13.38;;;;;;;7.06;54.37;101057.41;1087636;54;20057;-80
2022/03/27 02:31:29;;;;;;;25.60;14.55;;;;;;;7.01;54.58;101055.88;1087482;54;20049;-80
2022/03/27 02:32:33;;;;;;;22.77;14.45;;;;;;;7.02;54.51;101056.75;1087707;54;20026;-81
2022/03/27 02:33:35;;;;;;;24.38;13.98;;;;;;;6.94;54.69;101065.22;1087637;54;20042;-80
2022/03/27 02:34:40;;;;;;;30.30;15.55;;;;;;;6.86;54.99;101063.03;1087664;54;20041;-82
2022/03/27 02:35:41;;;;;;;25.23;15.00;;;;;;;6.83;55.38;101059.69;1092171;39;20496;-80
2022/03/27 02:36:46;;;;;;;28.58;15.40;;;;;;;6.84;55.24;101064.06;1087736;54;20026;-81
2022/03/27 02:37:48;;;;;;;24.05;14.30;;;;;;;6.78;55.04;101059.16;1087742;54;20039;-80
2022/03/27 02:38:55;;;;;;;24.55;13.93;;;;;;;6.82;55.16;101061.53;1087835;54;20579;-81
2022/03/27 02:39:56;;;;;;;28.35;15.63;;;;;;;6.76;55.06;101056.56;1087966;54;20528;-80
2022/03/27 02:41:03;;;;;;;25.23;14.68;;;;;;;6.75;55.33;101062.00;1087933;54;20034;-82
2022/03/27 02:42:06;;;;;;;29.95;15.45;;;;;;;6.72;55.32;101055.91;1088077;54;20555;-79
2022/03/27 02:43:10;;;;;;;28.00;15.25;;;;;;;6.67;55.52;101063.31;1087995;54;20638;-79
2022/03/27 02:44:12;;;;;;;22.27;14.73;;;;;;;6.69;55.29;101053.47;1087492;54;20042;-79
2022/03/27 02:45:17;;;;;;;29.45;14.93;;;;;;;6.65;55.28;101061.72;1088079;54;20042;-80
2022/03/27 02:46:18;;;;;;;25.40;15.35;;;;;;;6.60;55.64;101056.69;1088143;54;20034;-81
2022/03/27 02:47:22;;;;;;;24.67;15.35;;;;;;;6.54;55.65;101057.03;1088194;54;20041;-79
2022/03/27 02:48:27;;;;;;;26.42;15.07;;;;;;;6.56;55.90;101055.16;1088237;54;20053;-81
2022/03/27 02:49:31;;;;;;;27.90;15.95;;;;;;;6.60;55.53;101056.69;1088318;54;20023;-82
2022/03/27 02:50:37;;;;;;;30.55;15.20;;;;;;;6.63;55.77;101052.97;1091676;46;20049;-84
2022/03/27 02:51:42;;;;;;;27.05;15.77;;;;;;;6.59;55.65;101060.28;1088166;54;20619;-82
2022/03/27 02:52:44;;;;;;;23.92;14.15;;;;;;;6.53;55.75;101056.19;1088079;54;20027;-80
2022/03/27 02:53:48;;;;;;;27.15;15.23;;;;;;;6.48;55.75;101058.25;1087829;54;20572;-80
2022/03/27 02:54:52;;;;;;;26.02;14.77;;;;;;;6.52;56.03;101056.28;1088070;54;20035;-79
2022/03/27 02:55:56;;;;;;;23.80;14.50;;;;;;;6.52;55.85;101056.28;1088094;54;20026;-79
2022/03/27 02:56:58;;;;;;;30.20;15.98;;;;;;;6.56;55.93;101060.47;1088189;47;20041;-80
2022/03/27 02:58:03;;;;;;;28.80;15.55;;;;;;;6.56;55.61;101052.50;1089936;39;20499;-81
2022/03/27 02:59:05;;;;;;;25.50;13.85;;;;;;;6.50;56.10;101058.19;1087945;54;20043;-81
2022/03/27 03:00:15;;;;;;;24.58;15.25;;;;;;;6.40;56.63;101050.78;1088415;54;20039;-84
2022/03/27 03:02:23;;;;;;;30.20;16.63;;;;;;;6.49;56.03;101056.47;1089791;39;20979;-84
2022/03/27 03:04:28;;;;;;;28.80;14.55;;;;;;;6.44;56.21;101061.19;1087887;54;20034;-80
2022/03/27 03:05:30;;;;;;;25.60;15.20;;;;;;;6.43;56.30;101059.50;1088531;54;20018;-84
2022/03/27 03:06:36;;;;;;;25.90;15.07;;;;;;;6.37;56.37;101064.25;1088542;54;20022;-84
2022/03/27 03:07:41;;;;;;;25.02;14.57;;;;;;;6.43;56.19;101059.50;1090485;39;20589;-82
2022/03/27 03:08:45;;;;;;;27.40;14.32;;;;;;;6.42;56.05;101061.31;1088533;54;20756;-82
2022/03/27 03:09:47;;;;;;;29.70;14.50;;;;;;;6.37;56.30;101058.09;1088567;54;20014;-82
2022/03/27 03:10:54;;;;;;;28.17;14.35;;;;;;;6.33;56.51;101059.22;1088476;54;20014;-84
2022/03/27 03:11:56;;;;;;;24.92;15.00;;;;;;;6.30;56.51;101059.38;1088460;54;20034;-85
2022/03/27 03:13:00;;;;;;;25.42;15.63;;;;;;;6.26;56.42;101057.88;1088514;54;20059;-83
2022/03/27 03:14:02;;;;;;;25.88;15.48;;;;;;;6.34;56.55;101064.41;1089464;47;20694;-81
2022/03/27 03:15:09;;;;;;;27.35;15.50;;;;;;;6.30;56.25;101054.06;1088569;54;20014;-83
2022/03/27 03:16:14;;;;;;;24.55;15.15;;;;;;;6.36;56.28;101056.38;1088518;54;20026;-82
2022/03/27 03:17:20;;;;;;;24.70;14.93;;;;;;;6.37;56.23;101061.59;1088537;54;20018;-84
2022/03/27 03:18:22;;;;;;;22.73;14.90;;;;;;;6.35;56.23;101068.78;1088462;54;20058;-82
2022/03/27 03:19:26;;;;;;;29.55;14.50;;;;;;;6.36;56.28;101059.03;1088320;54;20010;-82
2022/03/27 03:20:29;;;;;;;27.90;13.77;;;;;;;6.49;55.81;101052.00;1088230;54;20027;-80
2022/03/27 03:21:33;;;;;;;23.63;13.63;;;;;;;6.54;55.66;101051.72;1088147;54;20030;-81
2022/03/27 03:22:37;;;;;;;25.38;15.27;;;;;;;6.50;55.58;101060.84;1088156;54;20063;-80
2022/03/27 03:23:41;;;;;;;23.10;13.45;;;;;;;6.58;55.57;101060.34;1088426;47;20074;-82
2022/03/27 03:24:46;;;;;;;19.65;12.98;;;;;;;6.68;54.99;101057.06;1088203;54;20039;-81
2022/03/27 03:25:48;;;;;;;21.23;13.07;;;;;;;6.79;54.81;101058.19;1088295;54;20682;-81
2022/03/27 03:26:54;;;;;;;21.10;12.50;;;;;;;6.78;54.84;101056.50;1088022;54;20050;-81
2022/03/27 03:27:56;;;;;;;20.83;13.50;;;;;;;6.76;54.94;101064.53;1088041;54;20019;-81
2022/03/27 03:29:00;;;;;;;21.30;12.65;;;;;;;6.89;54.46;101061.13;1089570;39;20431;-81
2022/03/27 03:30:03;;;;;;;25.52;13.10;;;;;;;6.92;54.44;101067.09;1087982;54;20571;-81
2022/03/27 03:31:08;;;;;;;18.17;10.85;;;;;;;7.01;54.25;101061.19;1088163;54;20043;-81
2022/03/27 03:32:11;;;;;;;18.25;11.38;;;;;;;7.11;54.09;101071.25;1087958;54;20567;-82
2022/03/27 03:33:15;;;;;;;19.23;11.48;;;;;;;7.15;53.74;101062.16;1088064;54;20026;-80
2022/03/27 03:34:17;;;;;;;18.45;10.60;;;;;;;7.15;53.83;101063.00;1091598;39;20566;-80
2022/03/27 03:35:21;;;;;;;19.60;11.70;;;;;;;7.20;53.73;101059.19;1087988;54;20615;-80
2022/03/27 03:36:25;;;;;;;15.25;10.10;;;;;;;7.23;53.61;101057.19;1095539;39;20449;-81
2022/03/27 03:37:27;;;;;;;18.08;11.07;;;;;;;7.27;53.34;101057.84;1087930;54;20018;-80
2022/03/27 03:38:31;;;;;;;17.88;10.77;;;;;;;7.29;53.63;101054.13;1087960;54;20555;-80
2022/03/27 03:39:32;;;;;;;17.42;10.90;;;;;;;7.30;53.64;101060.31;1088088;54;20041;-81
2022/03/27 03:40:37;;;;;;;18.23;11.52;;;;;;;7.30;53.58;101058.50;1087892;54;20098;-79
2022/03/27 03:41:39;;;;;;;17.92;10.23;;;;;;;7.34;53.17;101072.44;1088155;54;20046;-82
2022/03/27 03:42:46;;;;;;;18.13;11.77;;;;;;;7.34;53.70;101060.00;1088106;54;20027;-80
2022/03/27 03:43:47;;;;;;;22.23;11.43;;;;;;;7.34;53.49;101060.00;1088015;54;20054;-82
2022/03/27 03:44:51;;;;;;;17.00;11.70;;;;;;;7.34;53.38;101059.16;1089525;39;20527;-80
2022/03/27 03:45:53;;;;;;;17.65;10.48;;;;;;;7.37;53.56;101058.97;1087921;54;20033;-82
2022/03/27 03:46:57;;;;;;;17.85;10.70;;;;;;;7.40;53.51;101060.56;1087999;54;20042;-80
2022/03/27 03:47:59;;;;;;;18.88;11.27;;;;;;;7.43;53.46;101061.22;1088026;54;20025;-83
2022/03/27 03:49:06;;;;;;;15.68;10.55;;;;;;;7.46;53.46;101063.69;1087834;54;20026;-81
2022/03/27 03:50:10;;;;;;;17.55;10.43;;;;;;;7.49;53.24;101059.97;1088026;54;20575;-80
2022/03/27 03:51:16;;;;;;;17.00;10.43;;;;;;;7.50;53.33;101061.66;1088654;31;20584;-82
2022/03/27 03:52:17;;;;;;;20.67;10.95;;;;;;;7.47;53.48;101061.84;1088089;54;20030;-84
2022/03/27 03:53:21;;;;;;;17.42;11.02;;;;;;;7.47;53.54;101068.06;1089767;39;20480;-82
2022/03/27 03:54:23;;;;;;;20.40;12.05;;;;;;;7.41;53.98;101062.28;1087871;54;20569;-81
2022/03/27 03:55:28;;;;;;;20.92;12.10;;;;;;;7.40;54.03;101060.56;1088145;54;20011;-79
2022/03/27 03:56:30;;;;;;;18.55;11.93;;;;;;;7.36;54.44;101059.91;1088010;54;20033;-82
2022/03/27 03:57:34;;;;;;;20.40;10.77;;;;;;;7.37;54.33;101055.47;1088074;54;20085;-81
2022/03/27 03:58:38;;;;;;;17.35;10.85;;;;;;;7.34;54.98;101062.69;1088009;54;20046;-81
2022/03/27 03:59:43;;;;;;;21.50;12.13;;;;;;;7.36;54.63;101057.25;1087971;54;20033;-85
2022/03/27 04:00:46;;;;;;;19.77;11.40;;;;;;;7.34;54.91;101056.47;1087890;54;20031;-81
2022/03/27 04:01:51;;;;;;;17.80;11.25;;;;;;;7.33;54.89;101058.31;1088090;54;20026;-82
2022/03/27 04:02:53;;;;;;;19.23;11.93;;;;;;;7.33;54.89;101055.66;1088113;54;20059;-82
2022/03/27 04:03:58;;;;;;;18.45;11.25;;;;;;;7.34;55.15;101053.81;1088228;54;20026;-82
2022/03/27 04:05:01;;;;;;;22.60;12.23;;;;;;;7.27;55.30;101056.06;1087894;54;20026;-84
2022/03/27 04:06:06;;;;;;;20.58;11.60;;;;;;;7.16;55.42;101055.88;1088168;54;20034;-82
2022/03/27 04:07:08;;;;;;;20.23;13.15;;;;;;;7.02;56.00;101062.06;1088619;54;20022;-81
2022/03/27 04:08:14;;;;;;;20.75;11.93;;;;;;;7.12;55.83;101057.88;1088380;54;20030;-82
2022/03/27 04:09:16;;;;;;;20.60;12.05;;;;;;;7.03;55.88;101055.81;1088677;54;20034;-81
2022/03/27 04:10:20;;;;;;;20.73;13.23;;;;;;;7.05;55.86;101061.03;1088640;54;20050;-83
2022/03/27 04:11:22;;;;;;;22.20;12.52;;;;;;;6.95;56.12;101050.97;1088458;54;20041;-82
2022/03/27 04:12:26;;;;;;;24.13;12.93;;;;;;;6.94;56.37;101056.38;1088567;54;20043;-83
2022/03/27 04:13:27;;;;;;;20.02;12.85;;;;;;;6.94;56.45;101057.22;1088511;54;20023;-81
2022/03/27 04:14:36;;;;;;;18.70;12.82;;;;;;;6.90;56.88;101053.03;1088555;54;20053;-82
2022/03/27 04:15:38;;;;;;;20.27;12.10;;;;;;;6.92;56.64;101055.63;1088606;54;20018;-82
2022/03/27 04:16:42;;;;;;;23.02;12.43;;;;;;;6.94;56.55;101054.56;1089034;39;20459;-80
2022/03/27 04:17:44;;;;;;;22.00;11.90;;;;;;;7.00;56.39;101053.34;1088432;54;20046;-80
2022/03/27 04:18:49;;;;;;;26.05;13.18;;;;;;;6.92;56.59;101051.16;1088122;54;20037;-82
2022/03/27 04:19:51;;;;;;;19.70;12.52;;;;;;;6.84;57.00;101042.81;1088569;54;20015;-81
2022/03/27 04:21:00;;;;;;;26.38;12.57;;;;;;;6.70;58.17;101047.19;1088469;54;20050;-82
2022/03/27 04:22:04;;;;;;;24.80;13.88;;;;;;;6.69;57.60;101055.25;1088663;54;20046;-83
2022/03/27 04:23:08;;;;;;;20.65;13.20;;;;;;;6.67;57.96;101044.72;1088578;54;20587;-84
2022/03/27 04:24:12;;;;;;;21.90;13.88;;;;;;;6.63;57.87;101050.31;1088197;54;20026;-81
2022/03/27 04:25:15;;;;;;;22.83;14.30;;;;;;;6.34;59.06;101051.13;1088545;54;20034;-80
2022/03/27 04:26:19;;;;;;;25.33;14.48;;;;;;;6.24;59.25;101047.31;1089268;46;20026;-81
2022/03/27 04:27:21;;;;;;;26.00;14.65;;;;;;;6.22;59.53;101052.75;1088176;54;20034;-80
2022/03/27 04:28:25;;;;;;;26.65;15.27;;;;;;;6.14;59.78;101060.31;1088170;54;20030;-82
2022/03/27 04:29:31;;;;;;;27.23;14.75;;;;;;;6.16;59.46;101053.13;1088100;54;20035;-80
2022/03/27 04:30:35;;;;;;;27.20;14.00;;;;;;;6.11;59.96;101057.00;1088275;54;20039;-80
2022/03/27 04:31:42;;;;;;;28.42;15.07;;;;;;;6.03;59.67;101057.44;1088020;54;20065;-80
2022/03/27 04:32:43;;;;;;;24.35;15.18;;;;;;;5.97;59.86;101055.13;1088326;54;20583;-79
2022/03/27 04:33:48;;;;;;;26.20;14.98;;;;;;;5.92;59.98;101061.53;1088178;54;20033;-81
2022/03/27 04:34:50;;;;;;;32.45;15.70;;;;;;;5.86;60.03;101061.91;1088175;54;20046;-80
2022/03/27 04:35:54;;;;;;;23.27;14.48;;;;;;;5.88;60.06;101070.63;1088271;54;20041;-79
2022/03/27 04:36:56;;;;;;;25.02;13.98;;;;;;;5.89;59.79;101066.16;1088130;54;20034;-79
2022/03/27 04:38:00;;;;;;;21.13;13.38;;;;;;;5.91;59.61;101067.78;1088070;54;20033;-81
2022/03/27 04:39:03;;;;;;;22.75;13.73;;;;;;;5.86;59.69;101071.66;1088185;54;20034;-78
2022/03/27 04:40:21;;;;;;;23.13;14.25;;;;;;;5.85;60.38;101067.31;1088128;54;20572;-80
2022/03/27 04:41:23;;;;;;;21.65;13.88;;;;;;;5.83;59.70;101066.53;1087986;54;20033;-80
2022/03/27 04:42:33;;;;;;;22.17;13.30;;;;;;;5.85;59.93;101073.47;1088773;39;20535;-81
2022/03/27 04:43:38;;;;;;;22.73;13.88;;;;;;;5.85;59.90;101070.81;1088324;54;20014;-81
2022/03/27 04:44:40;;;;;;;25.92;13.93;;;;;;;5.91;59.59;101080.22;1088222;54;20046;-80
2022/03/27 04:45:47;;;;;;;22.60;14.02;;;;;;;5.90;59.54;101070.53;1088339;54;20031;-80
2022/03/27 04:46:48;;;;;;;23.33;14.20;;;;;;;5.91;59.48;101058.97;1088333;54;20018;-80
2022/03/27 04:47:52;;;;;;;22.35;13.68;;;;;;;5.91;59.53;101069.59;1088826;39;20563;-80
2022/03/27 04:48:54;;;;;;;23.48;13.65;;;;;;;5.84;59.66;101066.44;1088255;54;20019;-80
2022/03/27 04:51:06;;;;;;;30.75;15.45;;;;;;;5.71;60.17;101068.13;1087792;54;20018;-79
2022/03/27 04:52:33;;;;;;;24.27;14.10;;;;;;;5.71;60.60;101068.94;1088523;54;20019;-82
2022/03/27 04:53:36;;;;;;;23.88;14.15;;;;;;;5.63;60.53;101069.38;1088657;54;20040;-80
2022/03/27 04:54:49;;;;;;;26.92;15.80;;;;;;;5.59;60.90;101074.94;1088292;54;20023;-81
2022/03/27 05:21:46;;;;;;;26.45;15.07;;;;;;;4.83;62.84;101093.22;1088530;54;20021;-79
2022/03/27 05:22:48;;;;;;;30.23;15.50;;;;;;;4.80;62.73;101098.69;1088348;54;20019;-78
2022/03/27 05:23:52;;;;;;;24.90;15.07;;;;;;;4.89;62.61;101094.69;1090253;46;20030;-78
2022/03/27 05:24:54;;;;;;;25.73;15.00;;;;;;;4.87;62.59;101093.91;1088432;54;20027;-79
2022/03/27 05:25:59;;;;;;;26.92;15.07;;;;;;;4.90;62.42;101091.09;1088481;54;20025;-78
2022/03/27 05:27:01;;;;;;;26.92;14.98;;;;;;;4.82;62.76;101094.16;1088433;54;20056;-79
2022/03/27 05:28:06;;;;;;;28.92;14.70;;;;;;;4.78;63.01;101094.41;1088336;54;20033;-80
2022/03/27 05:29:10;;;;;;;27.85;15.27;;;;;;;4.69;63.18;101091.31;1088286;54;20030;-79
2022/03/27 05:30:15;;;;;;;26.35;15.20;;;;;;;4.80;63.00;101093.41;1088251;54;20031;-79